Time;durP1;ratioP1;P1;durP2;ratioP2;P2;SDS_P1;SDS_P2;PMS_P1;PMS_P2;Temp;Humidity;BMP_temperature;BMP_pressure;BME280_temperature;BME280_humidity;BME280_pressure;Samples;Min_cycle;Max_cycle;Signal;HPM_P1;HPM_P2
2022/01/27 00:01:39;;;;;;;13.63;6.07;;;3.30;79.60;;;;;;5029940;28;20144;-72
2022/01/27 00:04:17;;;;;;;15.25;6.60;;;3.30;79.60;;;;;;4722570;28;10001325;-72
2022/01/27 00:06:44;;;;;;;16.48;6.88;;;3.30;79.50;;;;;;1386264;28;10002183;-73
2022/01/27 00:09:20;;;;;;;15.27;6.55;;;3.20;79.50;;;;;;5034213;28;20191;-72
2022/01/27 00:11:48;;;;;;;13.05;5.57;;;3.30;79.60;;;;;;5034037;28;20049;-74
2022/01/27 00:14:18;;;;;;;15.98;7.07;;;3.20;79.50;;;;;;5032361;28;20055;-73
2022/01/27 00:16:54;;;;;;;17.02;6.45;;;3.20;79.50;;;;;;5028965;28;20384;-70
2022/01/27 00:19:23;;;;;;;12.13;5.95;;;3.20;79.40;;;;;;5026098;28;20175;-70
2022/01/27 00:21:50;;;;;;;15.30;6.43;;;3.20;79.50;;;;;;5022986;28;20181;-71
2022/01/27 00:24:17;;;;;;;15.57;6.70;;;3.20;79.40;;;;;;5028599;28;20127;-71
2022/01/27 00:26:45;;;;;;;14.02;6.60;;;3.20;79.50;;;;;;5033066;28;20072;-72
2022/01/27 00:29:12;;;;;;;11.60;4.95;;;3.20;79.40;;;;;;5030746;28;20143;-73
2022/01/27 00:31:39;;;;;;;15.52;6.47;;;3.20;79.30;;;;;;5045793;28;20052;-72
2022/01/27 00:34:06;;;;;;;15.35;5.65;;;3.20;79.30;;;;;;5053820;28;20064;-72
2022/01/27 00:36:35;;;;;;;13.80;5.55;;;3.20;79.20;;;;;;5043163;28;20130;-71
2022/01/27 00:39:02;;;;;;;14.77;6.60;;;3.20;79.10;;;;;;5034453;28;20611;-71
2022/01/27 00:41:30;;;;;;;15.77;6.78;;;3.20;79.00;;;;;;5024937;28;20548;-71
2022/01/27 00:43:57;;;;;;;15.57;6.47;;;3.20;79.00;;;;;;5012287;28;20072;-72
2022/01/27 00:46:25;;;;;;;13.27;5.95;;;3.10;79.00;;;;;;5024945;28;20159;-71
2022/01/27 00:48:52;;;;;;;16.02;6.28;;;3.20;78.90;;;;;;5028790;28;20076;-71
2022/01/27 00:51:29;;;;;;;10.63;5.38;;;3.10;78.90;;;;;;5032272;28;20345;-70
2022/01/27 00:54:04;;;;;;;12.93;4.80;;;3.20;78.90;;;;;;5021221;28;20829;-71
2022/01/27 00:56:39;;;;;;;12.40;6.25;;;3.10;79.00;;;;;;5030358;28;20053;-72
2022/01/27 00:59:22;;;;;;;12.05;5.03;;;3.10;78.90;;;;;;5030690;28;20462;-71
2022/01/27 01:01:57;;;;;;;12.68;6.68;;;3.10;78.90;;;;;;5049953;28;20137;-72
2022/01/27 01:04:25;;;;;;;15.63;7.57;;;3.10;78.80;;;;;;5030505;28;20395;-71
2022/01/27 01:06:53;;;;;;;14.07;6.90;;;3.10;78.80;;;;;;5024309;28;20048;-70
2022/01/27 01:14:51;;;;;;;16.88;7.05;;;3.10;78.90;;;;;;5029673;28;20620;-72
2022/01/27 01:17:44;;;;;;;16.42;6.93;;;3.10;78.80;;;;;;5030915;28;20150;-71
2022/01/27 01:31:44;;;;;;;14.18;5.93;;;3.10;78.90;;;;;;5038705;28;20526;-71
2022/01/27 01:34:15;;;;;;;17.73;7.78;;;3.10;78.90;;;;;;5050900;28;20113;-71
2022/01/27 01:36:53;;;;;;;14.85;7.35;;;3.10;78.90;;;;;;5031799;28;20183;-70
2022/01/27 01:39:21;;;;;;;15.40;7.07;;;3.10;78.90;;;;;;5032501;28;20621;-71
2022/01/27 01:41:49;;;;;;;14.73;6.90;;;3.10;78.80;;;;;;5031745;28;20084;-72
2022/01/27 01:44:16;;;;;;;14.02;6.88;;;3.00;78.80;;;;;;5047707;28;20059;-70
2022/01/27 01:46:43;;;;;;;14.60;6.88;;;3.00;78.90;;;;;;5033433;28;20069;-71
2022/01/27 01:49:10;;;;;;;17.05;7.70;;;3.10;78.80;;;;;;5034307;28;20044;-70
2022/01/27 01:51:39;;;;;;;14.57;6.95;;;3.00;78.70;;;;;;5035547;28;20156;-71
2022/01/27 01:54:08;;;;;;;13.77;5.90;;;3.00;78.60;;;;;;5036895;28;20546;-71
2022/01/27 01:56:38;;;;;;;15.23;6.40;;;3.00;78.60;;;;;;5037039;28;20049;-71
2022/01/27 01:59:06;;;;;;;13.60;5.82;;;3.10;78.50;;;;;;5036346;28;20041;-71
2022/01/27 02:01:34;;;;;;;13.63;6.20;;;3.10;78.40;;;;;;5033478;28;20053;-71
2022/01/27 02:04:05;;;;;;;14.77;6.72;;;3.00;78.40;;;;;;5034234;28;20053;-72
2022/01/27 02:06:37;;;;;;;11.52;5.72;;;3.00;78.40;;;;;;4974827;28;20087;-72
2022/01/27 02:09:20;;;;;;;5.92;3.02;;;3.00;78.30;;;;;;307526;28;10022689;-71
2022/01/27 02:20:05;;;;;;;13.23;6.43;;;3.00;78.30;;;;;;5045729;28;20688;-70
2022/01/27 02:22:32;;;;;;;15.13;5.82;;;3.00;78.40;;;;;;5043382;28;20072;-72
2022/01/27 02:24:59;;;;;;;14.55;6.10;;;2.90;78.40;;;;;;5048496;28;20056;-72
2022/01/27 02:27:26;;;;;;;13.02;4.95;;;2.90;78.40;;;;;;5049750;28;20044;-71
2022/01/27 02:29:53;;;;;;;13.88;6.32;;;2.90;78.50;;;;;;5045965;28;20155;-71
2022/01/27 02:32:22;;;;;;;15.00;6.80;;;2.90;78.50;;;;;;5046151;28;20041;-71
2022/01/27 02:34:49;;;;;;;16.75;7.40;;;3.00;78.50;;;;;;5046149;28;20090;-72
2022/01/27 02:37:18;;;;;;;12.60;6.03;;;2.90;78.60;;;;;;5047279;28;20151;-72
2022/01/27 02:39:45;;;;;;;13.10;6.28;;;2.90;78.60;;;;;;5047075;28;20052;-71
2022/01/27 02:42:17;;;;;;;13.82;6.38;;;2.90;78.50;;;;;;5046725;28;20045;-71
2022/01/27 02:44:56;;;;;;;16.63;6.78;;;2.90;78.60;;;;;;5043641;28;20060;-72
2022/01/27 02:47:25;;;;;;;20.40;7.80;;;2.90;78.60;;;;;;5027844;28;20437;-70
2022/01/27 02:49:53;;;;;;;13.68;5.75;;;2.90;78.60;;;;;;5044771;28;20557;-71
2022/01/27 02:52:22;;;;;;;15.07;6.03;;;3.00;78.60;;;;;;5043599;28;20045;-71
2022/01/27 02:54:49;;;;;;;12.77;5.72;;;3.00;78.50;;;;;;5038318;28;20048;-71
2022/01/27 02:57:16;;;;;;;15.57;7.07;;;2.90;78.50;;;;;;5030044;28;20049;-72
2022/01/27 02:59:43;;;;;;;16.95;6.55;;;3.00;78.40;;;;;;5046266;28;20488;-71
2022/01/27 03:02:10;;;;;;;18.42;6.97;;;3.00;78.40;;;;;;5043880;28;20049;-72
2022/01/27 03:04:37;;;;;;;12.82;5.85;;;2.90;78.60;;;;;;5028579;28;20053;-71
2022/01/27 03:07:06;;;;;;;15.60;6.25;;;2.90;78.70;;;;;;5025228;28;20051;-71
2022/01/27 03:09:35;;;;;;;13.27;5.72;;;2.90;78.60;;;;;;5025892;28;20166;-71
2022/01/27 03:12:06;;;;;;;13.95;6.63;;;2.90;78.60;;;;;;5025692;28;20075;-72
2022/01/27 03:14:34;;;;;;;14.60;6.30;;;2.90;78.60;;;;;;5026009;28;20269;-71
2022/01/27 03:17:02;;;;;;;13.30;6.43;;;2.90;78.70;;;;;;5026119;28;20276;-70
2022/01/27 03:19:30;;;;;;;15.02;7.43;;;2.90;78.70;;;;;;5026538;28;20041;-72
2022/01/27 03:21:58;;;;;;;13.40;5.45;;;2.90;78.70;;;;;;5022891;28;20051;-72
2022/01/27 03:24:25;;;;;;;10.70;5.53;;;2.90;78.70;;;;;;5026858;28;20044;-72
2022/01/27 03:26:54;;;;;;;18.60;7.53;;;2.90;78.70;;;;;;5022414;28;20052;-72
2022/01/27 03:29:22;;;;;;;17.67;6.43;;;2.90;78.80;;;;;;5022527;28;20041;-71
2022/01/27 03:31:49;;;;;;;15.38;6.47;;;2.90;78.70;;;;;;5036998;28;20666;-71
2022/01/27 03:34:16;;;;;;;17.25;7.90;;;2.90;78.70;;;;;;5043039;28;20508;-72
2022/01/27 03:36:44;;;;;;;16.55;6.95;;;2.90;78.80;;;;;;5043029;28;20174;-71
2022/01/27 03:39:14;;;;;;;17.17;7.35;;;2.90;78.80;;;;;;5046620;28;20321;-71
2022/01/27 03:41:47;;;;;;;15.95;6.50;;;2.80;78.70;;;;;;5045330;28;20998;-70
2022/01/27 03:44:15;;;;;;;14.15;6.20;;;2.90;78.70;;;;;;5027725;28;20116;-72
2022/01/27 03:46:42;;;;;;;13.65;6.50;;;2.80;78.80;;;;;;5043443;28;20055;-71
2022/01/27 03:49:09;;;;;;;14.32;7.25;;;2.90;78.90;;;;;;5043369;28;20056;-71
2022/01/27 03:51:36;;;;;;;13.80;6.85;;;2.90;78.90;;;;;;5021115;28;21035;-71
2022/01/27 03:54:03;;;;;;;18.08;6.85;;;2.90;78.90;;;;;;5043502;28;20395;-72
2022/01/27 03:56:30;;;;;;;14.23;6.68;;;2.90;78.80;;;;;;5043988;28;20133;-71
2022/01/27 03:58:57;;;;;;;13.38;7.53;;;2.90;78.80;;;;;;5043404;28;20592;-71
2022/01/27 04:01:25;;;;;;;14.02;5.80;;;2.90;78.90;;;;;;5041211;28;20053;-72
2022/01/27 04:03:56;;;;;;;15.05;6.75;;;2.90;78.90;;;;;;4988213;28;20831;-72
2022/01/27 04:06:40;;;;;;;10.00;3.67;;;2.90;78.80;;;;;;1140776;28;10022504;-70
2022/01/27 04:09:10;;;;;;;12.05;4.72;;;2.80;79.00;;;;;;4697395;28;10001320;-71
2022/01/27 04:11:38;;;;;;;20.65;6.93;;;2.80;78.90;;;;;;5045743;28;20427;-73
2022/01/27 04:14:05;;;;;;;15.57;7.13;;;2.90;78.80;;;;;;5039460;28;20045;-72
2022/01/27 04:16:34;;;;;;;14.45;6.40;;;2.80;78.90;;;;;;5043227;28;20055;-72
2022/01/27 04:19:01;;;;;;;16.13;7.10;;;2.80;79.00;;;;;;5040972;28;20052;-71
2022/01/27 04:21:30;;;;;;;18.42;7.45;;;2.80;79.10;;;;;;5042680;28;20059;-72
2022/01/27 04:23:57;;;;;;;14.57;7.13;;;2.80;79.00;;;;;;5042473;28;20490;-74
2022/01/27 04:26:32;;;;;;;17.23;8.27;;;2.80;79.40;;;;;;5041192;28;20072;-71
2022/01/27 04:28:59;;;;;;;14.93;6.78;;;2.70;79.30;;;;;;5033358;28;20144;-70
2022/01/27 04:31:27;;;;;;;17.52;7.30;;;2.80;79.30;;;;;;5041322;28;20428;-71
2022/01/27 04:33:56;;;;;;;19.27;7.72;;;2.80;79.20;;;;;;5045924;28;20044;-72
2022/01/27 04:36:29;;;;;;;17.95;7.50;;;2.80;79.20;;;;;;5042083;28;20067;-72
2022/01/27 04:39:05;;;;;;;15.52;7.07;;;2.80;79.20;;;;;;5045631;28;20376;-71
2022/01/27 04:41:37;;;;;;;13.57;6.35;;;2.80;79.10;;;;;;5044336;28;20559;-71
2022/01/27 04:44:13;;;;;;;15.40;6.70;;;2.80;79.20;;;;;;5041672;28;20170;-72
2022/01/27 04:46:46;;;;;;;17.48;7.25;;;2.80;79.10;;;;;;5044177;28;20052;-72
2022/01/27 04:49:15;;;;;;;18.58;7.63;;;2.80;79.00;;;;;;5043287;28;20048;-72
2022/01/27 04:51:42;;;;;;;13.65;6.20;;;2.80;79.00;;;;;;5024364;28;20186;-71
2022/01/27 04:54:14;;;;;;;16.40;6.97;;;2.80;79.00;;;;;;5005287;28;20049;-72
2022/01/27 04:56:42;;;;;;;17.13;6.88;;;2.80;79.00;;;;;;5030522;28;20068;-72
2022/01/27 04:59:15;;;;;;;13.73;5.88;;;2.90;78.90;;;;;;5024442;28;20398;-71
2022/01/27 05:01:46;;;;;;;13.10;6.18;;;2.90;78.90;;;;;;5022629;28;20118;-71
2022/01/27 05:04:18;;;;;;;16.98;7.45;;;2.90;78.80;;;;;;5038296;28;20423;-71
2022/01/27 05:06:46;;;;;;;14.38;6.25;;;2.80;78.90;;;;;;5023970;28;20791;-70
2022/01/27 05:09:13;;;;;;;16.27;7.70;;;2.80;79.00;;;;;;5024418;28;20041;-72
2022/01/27 05:11:47;;;;;;;19.02;7.95;;;2.80;79.00;;;;;;5019014;28;20683;-70
2022/01/27 05:14:17;;;;;;;14.73;7.07;;;2.80;79.10;;;;;;5025056;28;20079;-72
2022/01/27 05:16:44;;;;;;;16.13;6.75;;;2.80;79.10;;;;;;5016939;28;20449;-72
2022/01/27 05:19:11;;;;;;;18.42;6.60;;;2.80;79.20;;;;;;5034247;28;20076;-71
2022/01/27 05:21:40;;;;;;;14.23;7.05;;;2.80;79.10;;;;;;5024982;28;21302;-72
2022/01/27 05:24:08;;;;;;;17.45;8.07;;;2.80;79.10;;;;;;5021043;28;20052;-72
2022/01/27 05:26:36;;;;;;;15.05;6.82;;;2.80;79.10;;;;;;5022676;28;20057;-70
2022/01/27 05:29:04;;;;;;;17.75;7.57;;;2.80;79.20;;;;;;5024742;28;20059;-72
2022/01/27 05:31:31;;;;;;;18.77;7.10;;;2.80;79.20;;;;;;5035530;28;20580;-72
2022/01/27 05:33:58;;;;;;;15.75;6.63;;;2.80;79.30;;;;;;5049105;28;20100;-71
2022/01/27 05:36:25;;;;;;;16.65;6.10;;;2.80;79.20;;;;;;5043378;28;20075;-71
2022/01/27 05:38:53;;;;;;;18.90;7.65;;;2.80;79.30;;;;;;5047202;28;20045;-71
2022/01/27 05:41:20;;;;;;;16.08;6.95;;;2.80;79.40;;;;;;5042452;28;20053;-71
2022/01/27 05:43:47;;;;;;;16.90;7.55;;;2.70;79.40;;;;;;5047199;28;20047;-70
2022/01/27 05:46:14;;;;;;;19.65;8.63;;;2.70;79.50;;;;;;5046834;28;20098;-71
2022/01/27 05:48:41;;;;;;;18.00;7.75;;;2.70;79.40;;;;;;5046755;28;20064;-72
2022/01/27 05:51:08;;;;;;;18.70;7.90;;;2.70;79.40;;;;;;5046640;28;20060;-71
2022/01/27 05:53:37;;;;;;;16.17;7.93;;;2.70;79.50;;;;;;5043008;28;20049;-71
2022/01/27 05:56:05;;;;;;;15.88;6.97;;;2.70;79.50;;;;;;5042533;28;20059;-71
2022/01/27 05:58:32;;;;;;;19.33;7.35;;;2.70;79.60;;;;;;5047519;28;20437;-72
2022/01/27 06:00:59;;;;;;;20.55;7.47;;;2.70;79.50;;;;;;5001172;28;21411;-72
2022/01/27 06:03:34;;;;;;;9.93;4.47;;;2.70;79.50;;;;;;3808115;28;10150473;-70
2022/01/27 06:06:01;;;;;;;17.10;7.18;;;2.80;79.40;;;;;;2085592;28;10002009;-71
2022/01/27 06:08:30;;;;;;;21.15;7.00;;;2.70;79.40;;;;;;5047476;28;20071;-70
2022/01/27 06:10:57;;;;;;;17.40;7.03;;;2.70;79.40;;;;;;5042010;28;20055;-72
2022/01/27 06:13:25;;;;;;;17.85;6.93;;;2.80;79.40;;;;;;5043276;28;20052;-71
2022/01/27 06:15:52;;;;;;;13.20;5.75;;;2.80;79.30;;;;;;5045363;28;20051;-72
2022/01/27 06:18:20;;;;;;;19.05;8.75;;;2.80;79.30;;;;;;5044547;28;20048;-72
2022/01/27 06:20:47;;;;;;;14.95;6.93;;;2.80;79.30;;;;;;5046621;28;20047;-72
2022/01/27 06:23:15;;;;;;;15.57;7.32;;;2.80;79.40;;;;;;5042015;28;20123;-72
2022/01/27 06:25:42;;;;;;;18.00;7.75;;;2.80;79.30;;;;;;5044619;28;20055;-72
2022/01/27 06:28:09;;;;;;;16.50;7.28;;;2.80;79.30;;;;;;5047112;28;20052;-72
2022/01/27 06:30:37;;;;;;;18.50;7.38;;;2.80;79.40;;;;;;5043279;28;20474;-71
2022/01/27 06:33:05;;;;;;;14.07;5.57;;;2.80;79.40;;;;;;5045004;28;20667;-72
2022/01/27 06:35:33;;;;;;;16.55;6.43;;;2.80;79.50;;;;;;5038076;28;20530;-72
2022/01/27 06:38:00;;;;;;;15.13;7.15;;;2.80;79.40;;;;;;5041046;28;20060;-72
2022/01/27 06:40:29;;;;;;;23.40;6.95;;;2.80;79.40;;;;;;5044007;28;21196;-72
2022/01/27 06:42:56;;;;;;;16.13;5.78;;;2.80;79.30;;;;;;5025684;28;20059;-72
2022/01/27 06:45:23;;;;;;;17.80;6.28;;;2.80;79.30;;;;;;5028346;28;20060;-71
2022/01/27 06:47:51;;;;;;;16.50;7.45;;;2.80;79.30;;;;;;5045760;28;20778;-72
2022/01/27 06:50:18;;;;;;;18.95;6.95;;;2.80;79.30;;;;;;5046024;28;20569;-72
2022/01/27 06:52:45;;;;;;;14.68;6.65;;;2.80;79.30;;;;;;5038798;28;20069;-71
2022/01/27 06:55:14;;;;;;;13.98;6.97;;;2.90;79.30;;;;;;5047272;28;20415;-72
2022/01/27 06:57:41;;;;;;;21.67;7.43;;;2.80;79.20;;;;;;5053687;28;20457;-71
2022/01/27 07:00:10;;;;;;;21.92;7.22;;;2.80;79.30;;;;;;5052309;28;20075;-72
2022/01/27 07:02:37;;;;;;;15.90;5.50;;;2.80;79.40;;;;;;5030562;28;20048;-71
2022/01/27 07:05:05;;;;;;;19.45;7.20;;;2.80;79.40;;;;;;5046141;28;20509;-73
2022/01/27 07:07:32;;;;;;;18.13;7.13;;;2.80;79.40;;;;;;5048384;28;20141;-71
2022/01/27 07:09:59;;;;;;;15.90;6.32;;;2.80;79.40;;;;;;5049712;28;20387;-71
2022/01/27 07:12:26;;;;;;;23.38;7.95;;;2.80;79.40;;;;;;5048468;28;20478;-72
2022/01/27 07:14:54;;;;;;;20.02;8.23;;;2.80;79.30;;;;;;5050089;28;20355;-74
2022/01/27 07:17:21;;;;;;;18.45;8.02;;;2.80;79.50;;;;;;5045447;28;20546;-70
2022/01/27 07:19:48;;;;;;;21.15;8.05;;;2.80;79.50;;;;;;5042701;28;20060;-72
2022/01/27 07:22:17;;;;;;;20.25;7.63;;;2.80;79.50;;;;;;5044302;28;20057;-72
2022/01/27 07:24:44;;;;;;;17.65;7.55;;;2.80;79.60;;;;;;5043777;28;20048;-72
2022/01/27 07:27:11;;;;;;;15.25;7.55;;;2.80;79.60;;;;;;5027669;28;20537;-70
2022/01/27 07:29:38;;;;;;;18.10;6.50;;;2.90;79.50;;;;;;5040037;28;20128;-72
2022/01/27 07:32:05;;;;;;;21.27;7.07;;;2.80;79.60;;;;;;5042974;28;20063;-72
2022/01/27 07:34:32;;;;;;;16.20;6.78;;;2.80;79.60;;;;;;5024474;28;20433;-71
2022/01/27 07:37:01;;;;;;;18.70;7.10;;;2.80;79.80;;;;;;5039283;28;20044;-72
2022/01/27 07:39:31;;;;;;;20.00;7.10;;;2.80;79.90;;;;;;5006205;28;20487;-70
2022/01/27 07:42:00;;;;;;;20.02;7.00;;;2.80;79.90;;;;;;5039051;28;20053;-72
2022/01/27 07:44:33;;;;;;;20.45;7.18;;;2.80;79.90;;;;;;5021184;28;20068;-72
2022/01/27 07:47:00;;;;;;;18.40;7.85;;;2.90;79.90;;;;;;5022708;28;20187;-71
2022/01/27 07:49:29;;;;;;;20.83;7.97;;;2.80;80.00;;;;;;5023903;28;20049;-72
2022/01/27 07:51:56;;;;;;;15.93;6.57;;;2.80;80.00;;;;;;5023034;28;20098;-71
2022/01/27 07:54:24;;;;;;;20.25;7.43;;;2.90;80.00;;;;;;5027007;28;20041;-72
2022/01/27 07:56:52;;;;;;;17.50;7.72;;;2.90;79.90;;;;;;5022536;28;20523;-72
2022/01/27 07:59:19;;;;;;;22.63;7.10;;;2.90;80.00;;;;;;4962505;28;21519;-73
2022/01/27 08:01:56;;;;;;;15.45;6.85;;;2.90;80.00;;;;;;1671256;28;10022689;-71
2022/01/27 08:04:24;;;;;;;16.63;6.18;;;2.90;80.00;;;;;;4674502;28;10001428;-71
2022/01/27 08:06:51;;;;;;;19.52;7.15;;;2.80;80.10;;;;;;5025382;28;20491;-72
2022/01/27 08:09:18;;;;;;;15.55;5.75;;;2.90;80.10;;;;;;5025745;28;20771;-71
2022/01/27 08:11:45;;;;;;;15.10;6.07;;;2.90;80.10;;;;;;5031849;28;20045;-70
2022/01/27 08:14:13;;;;;;;22.00;6.10;;;2.90;80.10;;;;;;5034075;28;20071;-72
2022/01/27 08:16:40;;;;;;;14.10;6.00;;;2.90;80.10;;;;;;5052644;28;20060;-72
2022/01/27 08:19:07;;;;;;;14.93;6.30;;;2.90;80.20;;;;;;5052741;28;20053;-71
2022/01/27 08:21:34;;;;;;;14.23;5.65;;;2.90;80.10;;;;;;5051886;28;20048;-71
2022/01/27 08:24:01;;;;;;;16.23;6.43;;;2.90;80.10;;;;;;5049800;28;20076;-71
2022/01/27 08:26:36;;;;;;;16.63;6.75;;;2.90;80.00;;;;;;5041396;28;20582;-71
2022/01/27 08:29:11;;;;;;;13.73;6.25;;;2.90;80.10;;;;;;5031094;28;20063;-72
2022/01/27 08:31:55;;;;;;;16.27;6.53;;;3.00;80.00;;;;;;5030754;28;20099;-71
2022/01/27 08:34:29;;;;;;;15.57;5.88;;;2.90;80.10;;;;;;5011290;28;20049;-71
2022/01/27 08:36:57;;;;;;;13.45;4.88;;;2.90;80.20;;;;;;5026367;28;20704;-71
2022/01/27 08:39:25;;;;;;;16.85;4.78;;;3.00;80.10;;;;;;5030638;28;20399;-72
2022/01/27 08:41:52;;;;;;;15.10;5.85;;;3.00;80.10;;;;;;5027315;28;20049;-72
2022/01/27 08:44:20;;;;;;;12.43;5.82;;;3.00;80.00;;;;;;5028253;28;20399;-70
2022/01/27 08:46:48;;;;;;;13.32;5.40;;;3.00;80.00;;;;;;5031971;28;20063;-70
2022/01/27 08:49:17;;;;;;;12.60;5.80;;;3.00;80.10;;;;;;5026773;28;20525;-70
2022/01/27 08:51:44;;;;;;;11.95;5.07;;;3.00;80.20;;;;;;5031800;28;20049;-71
2022/01/27 08:54:10;;;;;;;13.32;5.47;;;3.00;80.20;;;;;;5033858;28;20479;-72
2022/01/27 08:56:37;;;;;;;13.45;5.10;;;3.00;80.20;;;;;;5034701;28;20528;-72
2022/01/27 08:59:05;;;;;;;15.23;5.25;;;3.00;80.20;;;;;;5034690;28;20054;-73
2022/01/27 09:01:32;;;;;;;13.70;4.55;;;3.00;80.30;;;;;;5033710;28;20110;-72
2022/01/27 09:04:00;;;;;;;12.90;5.57;;;3.00;80.30;;;;;;5033181;28;20130;-72
2022/01/27 09:06:28;;;;;;;12.05;5.30;;;3.00;80.30;;;;;;5032821;28;20041;-71
2022/01/27 09:08:56;;;;;;;13.25;5.15;;;3.00;80.40;;;;;;5032837;28;20053;-72
2022/01/27 09:11:23;;;;;;;11.98;4.28;;;3.10;80.40;;;;;;5031905;28;20052;-71
2022/01/27 09:13:52;;;;;;;15.13;5.60;;;3.10;80.50;;;;;;5031822;28;20617;-72
2022/01/27 09:16:19;;;;;;;13.93;4.88;;;3.10;80.40;;;;;;5031741;28;20127;-72
2022/01/27 09:18:46;;;;;;;12.57;6.07;;;3.00;80.50;;;;;;5025672;28;20057;-70
2022/01/27 09:21:20;;;;;;;12.52;5.75;;;3.10;80.50;;;;;;5026613;28;20048;-72
2022/01/27 09:23:48;;;;;;;10.70;4.32;;;3.10;80.60;;;;;;5026250;28;20041;-70
2022/01/27 09:26:38;;;;;;;16.08;5.05;;;3.00;80.60;;;;;;5025115;28;20060;-70
2022/01/27 09:29:08;;;;;;;10.55;4.95;;;3.10;80.80;;;;;;5041559;28;20453;-72
2022/01/27 09:31:36;;;;;;;11.73;4.50;;;3.00;80.70;;;;;;5024561;28;20391;-71
2022/01/27 09:34:03;;;;;;;13.05;6.95;;;3.00;80.90;;;;;;5027695;28;20044;-71
2022/01/27 09:36:32;;;;;;;11.82;5.35;;;3.10;80.90;;;;;;5026460;28;20361;-71
2022/01/27 09:38:59;;;;;;;12.75;5.05;;;3.00;81.00;;;;;;5029706;28;20045;-71
2022/01/27 09:41:28;;;;;;;18.27;7.03;;;3.10;81.10;;;;;;5030687;28;20344;-72
2022/01/27 09:43:55;;;;;;;15.25;5.88;;;3.10;81.10;;;;;;5048872;28;20060;-71
2022/01/27 09:46:23;;;;;;;14.25;7.35;;;3.10;81.10;;;;;;5045692;28;20052;-71
2022/01/27 09:48:52;;;;;;;11.40;4.90;;;3.20;80.90;;;;;;5049438;28;20057;-72
2022/01/27 09:51:26;;;;;;;13.40;4.95;;;3.10;81.00;;;;;;5050239;28;20055;-72
2022/01/27 09:53:57;;;;;;;17.52;5.45;;;3.10;81.10;;;;;;5049414;28;20095;-71
2022/01/27 09:56:24;;;;;;;11.65;4.53;;;3.10;81.30;;;;;;5052625;28;20072;-72
2022/01/27 09:58:51;;;;;;;16.13;5.22;;;3.10;81.30;;;;;;5051205;28;20066;-72
2022/01/27 10:01:21;;;;;;;20.13;7.57;;;3.20;81.40;;;;;;4323856;28;10000912;-72
2022/01/27 10:03:56;;;;;;;13.93;5.25;;;3.20;81.30;;;;;;1731449;28;10002166;-71
2022/01/27 10:06:28;;;;;;;17.85;6.07;;;3.20;81.30;;;;;;5031041;28;20057;-72
2022/01/27 10:09:14;;;;;;;15.05;6.30;;;3.20;81.20;;;;;;5031781;28;20056;-71
2022/01/27 10:11:42;;;;;;;19.25;6.40;;;3.20;81.50;;;;;;5031007;28;20061;-71
2022/01/27 10:14:24;;;;;;;12.95;5.40;;;3.20;81.50;;;;;;5033166;28;20049;-72
2022/01/27 10:16:54;;;;;;;11.68;4.38;;;3.20;81.40;;;;;;5053182;28;20187;-72
2022/01/27 10:19:25;;;;;;;12.18;5.32;;;3.20;81.60;;;;;;5046069;28;20053;-71
2022/01/27 10:22:00;;;;;;;13.38;5.28;;;3.20;81.70;;;;;;5034458;28;20051;-71
2022/01/27 10:24:31;;;;;;;13.30;5.28;;;3.20;81.90;;;;;;5038506;28;20611;-71
2022/01/27 10:27:27;;;;;;;17.77;6.72;;;3.20;81.80;;;;;;5026638;28;20049;-72
2022/01/27 10:32:54;;;;;;;13.70;6.07;;;3.30;81.90;;;;;;5025925;28;20583;-72
2022/01/27 10:35:23;;;;;;;10.70;4.65;;;3.30;81.70;;;;;;5039043;28;20079;-71
2022/01/27 10:37:56;;;;;;;13.90;5.80;;;3.30;81.80;;;;;;5063103;28;20580;-71
2022/01/27 10:40:27;;;;;;;17.92;6.80;;;3.30;81.70;;;;;;5054159;28;20171;-70
2022/01/27 10:43:07;;;;;;;16.13;6.15;;;3.20;82.00;;;;;;5054979;28;20494;-71
2022/01/27 10:45:34;;;;;;;16.35;5.63;;;3.30;82.10;;;;;;5054424;28;20439;-72
2022/01/27 10:48:26;;;;;;;14.70;6.22;;;3.40;82.10;;;;;;5054409;28;20051;-71
2022/01/27 10:51:01;;;;;;;14.65;6.20;;;3.40;82.10;;;;;;5029748;28;20386;-72
2022/01/27 10:53:56;;;;;;;12.45;5.15;;;3.40;82.10;;;;;;5030496;28;20554;-71
2022/01/27 10:56:26;;;;;;;12.80;6.15;;;3.40;82.20;;;;;;5032280;28;21628;-71
2022/01/27 10:58:55;;;;;;;12.02;5.43;;;3.40;82.20;;;;;;5032607;28;20053;-71
2022/01/27 11:01:23;;;;;;;16.95;4.97;;;3.50;82.10;;;;;;5036636;28;20049;-71
2022/01/27 11:03:51;;;;;;;14.13;6.20;;;3.50;82.00;;;;;;5054200;28;20052;-70
2022/01/27 11:06:23;;;;;;;14.07;5.75;;;3.50;82.00;;;;;;5053567;28;20401;-71
2022/01/27 11:08:53;;;;;;;12.48;5.63;;;3.50;81.80;;;;;;5053777;28;20402;-71
2022/01/27 11:11:21;;;;;;;;;;;3.50;81.80;;;;;;5054237;28;20186;-72
2022/01/27 11:13:50;;;;;;;14.43;6.13;;;3.40;81.90;;;;;;5043408;28;19935;-71
2022/01/27 11:16:22;;;;;;;10.00;4.82;;;3.50;82.00;;;;;;5044878;28;20162;-70
2022/01/27 11:18:49;;;;;;;13.00;5.65;;;3.50;81.80;;;;;;5046484;28;20055;-73
2022/01/27 11:21:29;;;;;;;15.30;4.93;;;3.50;81.80;;;;;;5044939;28;20536;-72
2022/01/27 11:24:04;;;;;;;15.98;5.60;;;3.50;81.80;;;;;;5048093;28;20521;-72
2022/01/27 11:26:34;;;;;;;10.45;4.88;;;3.50;81.90;;;;;;5049643;28;20049;-72
2022/01/27 11:29:04;;;;;;;10.93;5.38;;;3.70;82.10;;;;;;5045495;28;20048;-71
2022/01/27 11:31:46;;;;;;;11.20;5.40;;;3.70;82.10;;;;;;5041398;28;20518;-71
2022/01/27 11:34:13;;;;;;;11.68;5.03;;;3.70;82.00;;;;;;5033870;28;20060;-71
2022/01/27 11:37:00;;;;;;;10.35;4.10;;;3.70;81.90;;;;;;5027799;28;20049;-72
2022/01/27 11:39:53;;;;;;;10.20;4.38;;;3.70;82.00;;;;;;5023925;28;20046;-71
2022/01/27 11:42:45;;;;;;;12.73;4.93;;;3.70;82.10;;;;;;5027877;28;20055;-72
2022/01/27 11:45:28;;;;;;;11.48;4.95;;;3.60;82.20;;;;;;5026150;28;20060;-71
2022/01/27 11:47:58;;;;;;;12.10;5.65;;;3.60;82.50;;;;;;5028998;28;20056;-73
2022/01/27 11:50:36;;;;;;;12.57;5.13;;;3.60;82.60;;;;;;5029590;28;20040;-72
2022/01/27 11:53:04;;;;;;;10.80;4.47;;;3.60;82.70;;;;;;5034131;28;20212;-71
2022/01/27 11:55:46;;;;;;;11.55;4.65;;;3.70;82.70;;;;;;5031382;28;20695;-71
2022/01/27 11:58:22;;;;;;;11.05;4.88;;;3.60;82.70;;;;;;4980560;28;20470;-73
2022/01/27 12:01:14;;;;;;;6.27;3.46;;;3.70;82.70;;;;;;1600128;28;10022779;-71
2022/01/27 12:03:41;;;;;;;14.38;5.00;;;3.60;82.60;;;;;;4681345;28;10001653;-72
2022/01/27 12:06:20;;;;;;;14.60;5.97;;;3.60;82.60;;;;;;5025531;28;20516;-71
2022/01/27 12:08:48;;;;;;;8.70;4.10;;;3.60;82.70;;;;;;5029929;28;20131;-71
2022/01/27 12:11:47;;;;;;;11.93;4.68;;;3.60;82.70;;;;;;5028952;28;20644;-71
2022/01/27 12:14:17;;;;;;;8.35;3.15;;;3.60;82.70;;;;;;4984948;28;20593;-71
2022/01/27 12:17:05;;;;;;;12.93;5.15;;;3.60;82.70;;;;;;5019115;28;20056;-71
2022/01/27 12:19:47;;;;;;;9.05;4.32;;;3.60;82.60;;;;;;5004819;28;20048;-71
2022/01/27 12:22:15;;;;;;;12.07;4.72;;;3.50;82.70;;;;;;5045053;28;20049;-71
2022/01/27 12:24:52;;;;;;;11.90;4.75;;;3.60;82.70;;;;;;5032685;28;20045;-72
2022/01/27 12:27:19;;;;;;;8.57;4.35;;;3.50;82.80;;;;;;5031520;28;20164;-71
2022/01/27 12:29:49;;;;;;;10.23;4.82;;;3.50;82.80;;;;;;5028028;28;20045;-71
2022/01/27 12:32:22;;;;;;;9.45;5.70;;;3.50;82.80;;;;;;5044214;28;20053;-71
2022/01/27 12:34:51;;;;;;;10.43;4.75;;;3.50;82.80;;;;;;5048189;28;20656;-71
2022/01/27 12:37:20;;;;;;;12.38;4.93;;;3.50;82.80;;;;;;5049406;28;20187;-70
2022/01/27 12:39:51;;;;;;;11.25;5.15;;;3.60;82.70;;;;;;5048051;28;20055;-73
2022/01/27 12:42:19;;;;;;;9.02;4.28;;;3.60;82.50;;;;;;5050639;28;20060;-71
2022/01/27 12:44:58;;;;;;;11.45;4.90;;;3.60;82.40;;;;;;5051534;28;20072;-72
2022/01/27 12:47:28;;;;;;;15.95;5.68;;;3.60;82.50;;;;;;5050470;28;20596;-72
2022/01/27 12:50:03;;;;;;;8.77;4.32;;;3.60;82.50;;;;;;5050686;28;20504;-72
2022/01/27 12:52:34;;;;;;;15.25;6.10;;;3.60;82.50;;;;;;5051094;28;20040;-70
2022/01/27 12:55:02;;;;;;;16.88;5.25;;;3.60;82.50;;;;;;5051054;28;20504;-72
2022/01/27 12:57:32;;;;;;;16.05;6.03;;;3.60;82.40;;;;;;5050469;28;20048;-71
2022/01/27 12:59:59;;;;;;;12.80;5.50;;;3.60;82.30;;;;;;5050437;28;20067;-71
2022/01/27 13:02:32;;;;;;;13.50;5.57;;;3.60;82.30;;;;;;5049062;28;20056;-71
2022/01/27 13:05:01;;;;;;;12.43;5.07;;;3.70;82.30;;;;;;5026691;28;20049;-70
2022/01/27 13:07:30;;;;;;;13.98;4.75;;;3.70;82.30;;;;;;5051141;28;20052;-70
2022/01/27 13:10:00;;;;;;;10.05;5.25;;;3.70;82.20;;;;;;5051919;28;20131;-71
2022/01/27 13:12:34;;;;;;;11.50;6.25;;;3.70;82.10;;;;;;5046204;28;20052;-70
2022/01/27 13:15:09;;;;;;;9.82;4.07;;;3.60;82.10;;;;;;5047405;28;20056;-71
2022/01/27 13:17:45;;;;;;;9.43;4.35;;;3.70;82.10;;;;;;5048091;28;20107;-71
2022/01/27 13:20:18;;;;;;;12.20;4.72;;;3.70;82.10;;;;;;5028993;28;20407;-71
2022/01/27 13:22:50;;;;;;;9.18;5.20;;;3.60;82.10;;;;;;5046441;28;20051;-70
2022/01/27 13:25:19;;;;;;;13.43;4.50;;;3.60;82.10;;;;;;5046625;28;20057;-72
2022/01/27 13:28:05;;;;;;;11.25;4.82;;;3.70;82.20;;;;;;5046652;28;20211;-72
2022/01/27 13:30:33;;;;;;;11.65;4.00;;;3.70;82.20;;;;;;5046835;28;20053;-71